Time;durP1;ratioP1;P1;durP2;ratioP2;P2;SDS_P1;SDS_P2;PMS_P1;PMS_P2;Temp;Humidity;BMP_temperature;BMP_pressure;BME280_temperature;BME280_humidity;BME280_pressure;Samples;Min_cycle;Max_cycle;Signal;HPM_P1;HPM_P2
2024/04/05 00:07:08;;;;;;;1.20;0.70;;;;;;;11.16;93.83;98957.85;447599;1239;139783;-61
2024/04/05 00:17:11;;;;;;;2.40;1.30;;;;;;;11.02;93.55;98966.65;443097;1235;5160177;-59
2024/04/05 00:27:15;;;;;;;0.60;0.50;;;;;;;10.85;94.27;98959.16;447338;1239;140180;-60
2024/04/05 00:37:18;;;;;;;0.60;0.60;;;;;;;10.69;95.22;98960.16;447427;1235;139953;-59
2024/04/05 00:47:22;;;;;;;1.60;0.90;;;;;;;10.61;96.41;98964.58;450458;1235;139716;-59
2024/04/05 00:57:25;;;;;;;0.90;0.80;;;;;;;10.48;97.03;98975.02;448068;1235;139543;-60
2024/04/05 01:07:29;;;;;;;1.30;1.10;;;;;;;10.33;98.29;98982.70;446981;1235;139172;-59
2024/04/05 01:17:34;;;;;;;2.70;0.90;;;;;;;10.31;99.85;98997.19;447111;1236;140202;-58
2024/04/05 01:27:42;;;;;;;;;;;;;;;10.33;100.00;99012.98;448388;1239;139272;-59
2024/04/05 01:37:46;;;;;;;1.80;1.00;;;;;;;10.26;100.00;99018.73;447224;1239;125972;-57
2024/04/05 01:47:49;;;;;;;3.60;1.80;;;;;;;10.11;100.00;99016.79;447561;1235;139496;-55
2024/04/05 01:57:53;;;;;;;3.20;1.50;;;;;;;9.75;100.00;99017.60;448163;1239;140500;-57
2024/04/05 02:07:56;;;;;;;3.00;2.30;;;;;;;9.37;100.00;99025.24;449299;1239;139656;-56
2024/04/05 02:18:00;;;;;;;4.80;1.60;;;;;;;9.04;100.00;99037.21;449022;1237;139867;-56
2024/04/05 02:28:05;;;;;;;3.30;1.70;;;;;;;8.80;100.00;99048.89;447732;1235;139799;-56
2024/04/05 02:38:08;;;;;;;1.70;1.10;;;;;;;8.71;100.00;99058.02;447999;1239;139775;-56
2024/04/05 02:48:11;;;;;;;1.80;1.60;;;;;;;8.77;100.00;99066.53;448121;1235;139234;-57
2024/04/05 02:58:17;;;;;;;2.20;1.70;;;;;;;8.76;100.00;99071.50;447369;1239;139753;-56
2024/04/05 03:08:23;;;;;;;2.40;2.20;;;;;;;8.50;100.00;99079.37;448523;1235;139173;-56
2024/04/05 03:18:28;;;;;;;2.30;1.20;;;;;;;8.19;100.00;99086.86;447006;1239;142189;-56
2024/04/05 03:28:31;;;;;;;2.40;1.30;;;;;;;7.96;100.00;99099.98;447270;1235;139954;-55
2024/04/05 03:38:37;;;;;;;1.20;1.10;;;;;;;7.74;100.00;99102.69;447963;1239;139480;-56
2024/04/05 03:48:41;;;;;;;3.10;1.50;;;;;;;7.59;100.00;99113.52;447784;1235;139930;-54
2024/04/05 03:58:46;;;;;;;2.00;1.20;;;;;;;7.45;100.00;99134.67;447292;1236;139604;-55
2024/04/05 04:08:50;;;;;;;2.70;1.80;;;;;;;7.33;100.00;99144.08;447761;1239;139112;-56
2024/04/05 04:18:53;;;;;;;3.30;1.40;;;;;;;7.23;100.00;99154.52;447571;1235;139317;-56
2024/04/05 04:28:59;;;;;;;2.20;1.20;;;;;;;7.18;100.00;99170.02;448167;1239;139406;-55
2024/04/05 04:39:08;;;;;;;;;;;;;;;7.17;100.00;99174.77;448695;1239;139039;-56
2024/04/05 04:49:12;;;;;;;1.90;1.40;;;;;;;7.25;100.00;99189.44;448631;1236;126239;-56
2024/04/05 04:59:15;;;;;;;1.20;1.10;;;;;;;7.66;100.00;99200.36;447583;1236;139202;-54
2024/04/05 05:09:21;;;;;;;1.30;1.20;;;;;;;8.16;100.00;99215.23;448076;1236;139661;-57
2024/04/05 05:19:24;;;;;;;1.50;1.20;;;;;;;8.52;100.00;99235.20;447915;1235;139625;-56
2024/04/05 05:29:30;;;;;;;1.90;1.20;;;;;;;10.77;100.00;99249.36;447567;1239;139243;-58
2024/04/05 05:39:33;;;;;;;2.20;1.20;;;;;;;15.11;100.00;99254.64;447711;1237;140440;-60
2024/04/05 05:49:37;;;;;;;1.70;1.20;;;;;;;19.03;98.97;99261.58;450421;1238;139939;-59
2024/04/05 05:59:40;;;;;;;1.70;0.60;;;;;;;20.99;97.86;99266.41;448101;1239;139670;-59
2024/04/05 06:09:50;;;;;;;2.00;1.00;;;;;;;25.17;88.18;99260.63;447764;1239;138949;-62
2024/04/05 06:19:54;;;;;;;0.90;0.50;;;;;;;28.61;77.53;99267.23;448089;1236;139310;-59
2024/04/05 06:29:58;;;;;;;1.10;0.90;;;;;;;30.39;67.97;99280.36;448068;1238;138474;-60
2024/04/05 06:40:02;;;;;;;2.00;0.70;;;;;;;28.09;55.66;99286.83;447106;1239;139181;-66
2024/04/05 06:50:07;;;;;;;1.10;0.80;;;;;;;27.82;53.82;99297.56;446868;1236;138927;-59
2024/04/05 07:00:11;;;;;;;;;;;;;;;28.88;50.77;99308.44;461146;1236;139011;-57
2024/04/05 07:10:14;;;;;;;1.20;0.70;;;;;;;24.94;47.06;99327.77;461071;1236;125030;-59
2024/04/05 07:20:18;;;;;;;3.00;1.30;;;;;;;20.48;50.31;99344.06;461060;1236;139744;-63
2024/04/05 07:30:22;;;;;;;3.20;1.30;;;;;;;17.55;54.05;99363.38;461085;1236;138526;-61
2024/04/05 07:40:27;;;;;;;1.40;0.80;;;;;;;15.73;58.22;99379.27;461275;1236;140707;-60
2024/04/05 07:50:30;;;;;;;3.60;1.10;;;;;;;15.23;61.55;99392.84;461167;1236;140032;-59
2024/04/05 08:00:33;;;;;;;5.10;1.60;;;;;;;15.44;63.32;99401.80;461084;1236;139508;-64
2024/04/05 08:10:37;;;;;;;8.30;2.90;;;;;;;15.48;64.07;99400.16;461233;1240;138694;-59
2024/04/05 08:20:40;;;;;;;6.10;1.40;;;;;;;15.86;65.30;99402.13;461124;1236;138896;-61
2024/04/05 08:30:43;;;;;;;1.70;1.00;;;;;;;16.54;64.03;99395.52;461084;1236;138535;-58
2024/04/05 08:40:47;;;;;;;3.90;1.60;;;;;;;18.12;64.35;99393.34;461168;1236;138385;-65
2024/04/05 08:50:51;;;;;;;3.00;1.70;;;;;;;19.63;60.90;99400.35;461124;1237;138768;-60
2024/04/05 09:00:55;;;;;;;6.50;2.10;;;;;;;19.41;58.78;99410.47;461051;1236;139058;-56
2024/04/05 09:10:59;;;;;;;5.90;2.00;;;;;;;19.25;58.97;99403.23;461245;1240;138726;-60
2024/04/05 09:21:02;;;;;;;1.90;1.10;;;;;;;19.86;59.48;99399.40;461069;1240;138450;-63
2024/04/05 09:31:07;;;;;;;3.20;1.50;;;;;;;20.32;57.39;99410.67;461138;1236;138488;-61
2024/04/05 09:41:13;;;;;;;6.10;2.00;;;;;;;19.94;56.59;99409.96;461297;1238;138491;-65
2024/04/05 09:51:19;;;;;;;4.20;1.00;;;;;;;19.17;56.48;99417.91;461144;1240;139110;-58
2024/04/05 10:01:23;;;;;;;3.80;1.90;;;;;;;18.54;56.79;99420.07;461224;1238;138920;-58
2024/04/05 10:11:27;;;;;;;2.60;1.60;;;;;;;18.05;57.42;99419.97;461373;1237;139881;-60
2024/04/05 10:21:32;;;;;;;6.30;2.00;;;;;;;17.87;58.71;99429.06;461245;1241;139831;-59
2024/04/05 10:31:37;;;;;;;2.30;1.00;;;;;;;18.02;58.86;99426.58;461184;1240;138991;-60
2024/04/05 10:41:41;;;;;;;2.70;0.80;;;;;;;18.02;57.76;99421.15;461296;1240;138353;-60
2024/04/05 10:51:46;;;;;;;4.10;1.30;;;;;;;18.20;57.72;99422.77;461265;1239;138958;-57
2024/04/05 11:01:49;;;;;;;1.70;0.90;;;;;;;18.40;56.83;99427.40;461217;1238;139472;-60
2024/04/05 11:11:58;;;;;;;3.20;1.00;;;;;;;17.82;56.26;99431.39;461302;1241;138427;-60
2024/04/05 11:22:04;;;;;;;2.90;1.70;;;;;;;17.12;57.15;99451.02;461251;1237;139234;-63
2024/04/05 11:32:08;;;;;;;1.80;0.90;;;;;;;16.65;58.12;99437.83;461220;1238;138805;-58
2024/04/05 11:42:12;;;;;;;2.70;1.30;;;;;;;17.03;59.09;99438.64;461330;1240;139102;-67
2024/04/05 11:52:16;;;;;;;2.90;1.20;;;;;;;17.71;58.65;99440.70;461246;1240;139277;-59
2024/04/05 12:02:19;;;;;;;5.70;1.40;;;;;;;18.00;57.61;99443.97;461254;1238;139840;-63
2024/04/05 12:12:23;;;;;;;4.20;1.20;;;;;;;18.39;56.90;99443.44;457241;1238;5134365;-58
2024/04/05 12:22:26;;;;;;;2.80;1.20;;;;;;;18.52;56.29;99450.80;461247;1240;139329;-62
2024/04/05 12:32:31;;;;;;;3.70;1.00;;;;;;;18.24;55.54;99455.11;461205;1238;139267;-59
2024/04/05 12:42:35;;;;;;;4.60;1.40;;;;;;;18.34;55.87;99448.09;461284;1237;139106;-60
2024/04/05 12:52:39;;;;;;;3.30;1.40;;;;;;;18.61;56.17;99437.80;461323;1238;138934;-60
2024/04/05 13:02:42;;;;;;;3.00;1.10;;;;;;;18.84;56.12;99429.75;461269;1238;138973;-59
2024/04/05 13:12:47;;;;;;;5.10;1.10;;;;;;;18.50;55.80;99410.27;461298;1238;139153;-63
2024/04/05 13:22:51;;;;;;;5.30;1.10;;;;;;;18.03;56.00;99416.61;461341;1236;139177;-61
2024/04/05 13:32:56;;;;;;;2.80;1.90;;;;;;;18.16;56.66;99413.10;461301;1238;139278;-59
2024/04/05 13:43:00;;;;;;;7.90;2.30;;;;;;;18.35;56.69;99407.84;461305;1238;139915;-61
2024/04/05 13:53:05;;;;;;;7.20;2.50;;;;;;;18.49;56.22;99402.58;461491;1238;139217;-58
2024/04/05 14:03:08;;;;;;;3.70;1.30;;;;;;;18.61;55.77;99388.21;461293;1238;139243;-60
2024/04/05 14:13:11;;;;;;;8.50;2.10;;;;;;;18.46;55.10;99383.65;461207;1237;139779;-59
2024/04/05 14:23:14;;;;;;;4.20;2.20;;;;;;;18.11;55.71;99373.56;461416;1238;139875;-61
2024/04/05 14:33:18;;;;;;;3.50;2.20;;;;;;;17.88;56.16;99363.64;461312;1238;139076;-60
2024/04/05 14:43:22;;;;;;;8.90;3.00;;;;;;;17.79;56.15;99356.45;461308;1238;139094;-62
2024/04/05 14:53:25;;;;;;;4.20;1.70;;;;;;;17.56;56.61;99358.50;461460;1236;139508;-64
2024/04/05 15:03:30;;;;;;;6.80;2.20;;;;;;;17.32;56.85;99338.86;461290;1238;139008;-65
2024/04/05 15:13:34;;;;;;;9.60;2.00;;;;;;;17.20;56.39;99327.59;461282;1238;138608;-61
2024/04/05 15:23:37;;;;;;;4.80;1.50;;;;;;;17.06;56.70;99319.66;461441;1236;139593;-51
2024/04/05 15:33:41;;;;;;;3.90;1.10;;;;;;;17.30;57.25;99318.17;461158;1236;139732;-59
2024/04/05 15:43:45;;;;;;;4.80;2.30;;;;;;;17.50;56.43;99311.92;452553;1238;139612;-59
2024/04/05 15:53:58;;;;;;;5.90;2.00;;;;;;;17.43;55.84;99309.30;447263;1239;139268;-68
2024/04/05 16:04:01;;;;;;;4.30;1.30;;;;;;;17.24;56.42;99315.89;446619;1240;139765;-72
2024/04/05 16:14:06;;;;;;;6.10;2.20;;;;;;;17.00;56.85;99307.84;449443;1240;138788;-70
2024/04/05 16:24:09;;;;;;;5.90;2.10;;;;;;;16.61;57.04;99309.57;447779;1236;138604;-70
2024/04/05 16:34:14;;;;;;;7.20;1.80;;;;;;;16.14;57.16;99307.55;447940;1239;138988;-64
2024/04/05 16:44:18;;;;;;;4.90;1.80;;;;;;;15.70;57.83;99308.81;461249;1236;139337;-63
2024/04/05 16:54:21;;;;;;;2.60;1.70;;;;;;;15.41;58.59;99301.33;461139;1238;140211;-59
2024/04/05 17:04:24;;;;;;;4.50;2.40;;;;;;;15.19;59.14;99285.05;461306;1236;138443;-59
2024/04/05 17:26:14;;;;;;;5.50;2.70;;;;;;;14.86;60.16;99281.45;461192;1237;139287;-60
2024/04/05 17:36:17;;;;;;;6.60;4.10;;;;;;;14.73;60.69;99269.84;458405;1237;138585;-65
2024/04/05 17:46:21;;;;;;;11.60;6.30;;;;;;;14.59;61.12;99277.20;447867;1238;138658;-60
2024/04/05 17:56:24;;;;;;;9.70;5.60;;;;;;;14.37;61.61;99265.68;448699;1240;138687;-58
2024/04/05 18:06:27;;;;;;;8.40;4.20;;;;;;;14.14;62.12;99262.31;446590;1240;139015;-58
2024/04/05 18:16:31;;;;;;;9.70;6.00;;;;;;;13.89;62.84;99263.34;447309;1240;139306;-61
2024/04/05 18:26:34;;;;;;;12.70;7.10;;;;;;;13.67;63.34;99297.85;447055;1236;139164;-62
2024/04/05 18:36:38;;;;;;;8.60;5.60;;;;;;;13.49;64.10;99291.85;446971;1240;139315;-60
2024/04/05 18:46:42;;;;;;;17.00;8.80;;;;;;;13.40;64.69;99280.98;461345;1236;139030;-58
2024/04/05 18:56:46;;;;;;;11.80;7.10;;;;;;;13.21;65.04;99267.90;461246;1236;139404;-71
2024/04/05 19:06:52;;;;;;;17.20;6.70;;;;;;;12.98;65.54;99257.77;461253;1236;139307;-61
2024/04/05 19:16:55;;;;;;;15.00;7.10;;;;;;;12.80;66.08;99253.50;461400;1236;139880;-61
2024/04/05 19:27:05;;;;;;;10.30;6.40;;;;;;;12.71;66.69;99264.42;461306;1236;139419;-62
2024/04/05 19:37:13;;;;;;;11.10;6.80;;;;;;;12.63;67.07;99256.83;461217;1236;140228;-61
2024/04/05 19:47:16;;;;;;;;;;;;;;;12.50;67.54;99228.59;461174;1236;139928;-61
2024/04/05 19:57:19;;;;;;;13.20;6.00;;;;;;;12.36;68.13;99230.75;461235;1236;124956;-58
2024/04/05 20:07:23;;;;;;;8.90;4.60;;;;;;;12.31;68.68;99217.13;461312;1236;139191;-60
2024/04/05 20:17:26;;;;;;;6.80;4.60;;;;;;;12.27;69.16;99196.34;461115;1236;139091;-67
2024/04/05 20:27:31;;;;;;;7.60;4.10;;;;;;;12.31;69.57;99168.80;461166;1236;140281;-63
2024/04/05 20:37:35;;;;;;;10.10;4.30;;;;;;;12.44;69.98;99158.34;461209;1236;139647;-66
2024/04/05 20:47:38;;;;;;;6.30;3.60;;;;;;;12.56;70.11;99147.39;461182;1236;139803;-64
2024/04/05 20:57:41;;;;;;;8.00;3.50;;;;;;;12.62;70.40;99166.79;461074;1236;139704;-66
2024/04/05 21:07:47;;;;;;;5.50;3.60;;;;;;;12.67;70.80;99178.48;461273;1236;139785;-69
2024/04/05 21:17:50;;;;;;;9.70;4.20;;;;;;;12.77;71.14;99161.41;461162;1236;139853;-58
2024/04/05 21:27:53;;;;;;;7.80;3.20;;;;;;;12.86;71.58;99121.52;461092;1236;139980;-61
2024/04/05 21:37:56;;;;;;;6.30;2.80;;;;;;;12.94;71.89;99098.20;461194;1236;140025;-61
2024/04/05 21:47:59;;;;;;;5.30;2.60;;;;;;;13.02;72.44;99086.31;461031;1238;140660;-61
2024/04/05 21:58:03;;;;;;;4.00;2.50;;;;;;;13.14;72.93;99075.61;451046;1241;140302;-52
2024/04/05 22:08:08;;;;;;;4.60;3.10;;;;;;;13.26;73.33;99080.30;446852;1241;139364;-53
2024/04/05 22:18:11;;;;;;;7.30;2.40;;;;;;;13.37;73.75;99075.20;446536;1240;139251;-54
2024/04/05 22:28:14;;;;;;;3.60;2.50;;;;;;;13.47;74.06;99072.60;446160;1239;139661;-51
2024/04/05 22:38:17;;;;;;;4.10;2.50;;;;;;;13.56;74.29;99052.65;446620;1241;139800;-54
2024/04/05 22:48:22;;;;;;;3.10;1.90;;;;;;;13.58;74.40;99031.35;446975;1240;139230;-52
2024/04/05 22:58:26;;;;;;;3.90;2.60;;;;;;;13.60;74.74;99037.95;446922;1241;139876;-51
2024/04/05 23:08:30;;;;;;;4.80;2.50;;;;;;;13.64;75.17;99059.04;446474;1242;139876;-52
2024/04/05 23:18:33;;;;;;;3.30;2.50;;;;;;;13.66;76.14;99048.72;447132;1240;139200;-52
2024/04/05 23:28:37;;;;;;;3.10;2.50;;;;;;;13.58;78.29;99070.98;447497;1240;140397;-56
2024/04/05 23:38:42;;;;;;;5.50;1.70;;;;;;;13.25;81.22;99093.56;446532;1241;139968;-57
2024/04/05 23:48:45;;;;;;;4.70;2.00;;;;;;;13.04;83.45;99095.30;446734;1241;139398;-56
2024/04/05 23:58:49;;;;;;;5.70;2.00;;;;;;;12.81;85.60;99092.04;446431;1240;139582;-57
